sensor_id;sensor_type;location;lat;lon;timestamp;temperature;humidity
1592;DHT22;789;51.612;7.510;2022-08-02T00:02:26;19.50;1.00
1592;DHT22;789;51.612;7.510;2022-08-02T00:04:54;19.50;1.00
1592;DHT22;789;51.612;7.510;2022-08-02T00:07:21;19.50;1.00
1592;DHT22;789;51.612;7.510;2022-08-02T00:09:47;19.50;1.00
1592;DHT22;789;51.612;7.510;2022-08-02T00:12:14;19.50;1.00
1592;DHT22;789;51.612;7.510;2022-08-02T00:14:41;19.40;1.00
1592;DHT22;789;51.612;7.510;2022-08-02T00:17:08;19.40;1.00
1592;DHT22;789;51.612;7.510;2022-08-02T00:19:35;19.40;1.00
1592;DHT22;789;51.612;7.510;2022-08-02T00:22:03;19.30;1.00
1592;DHT22;789;51.612;7.510;2022-08-02T00:24:30;19.30;1.00
1592;DHT22;789;51.612;7.510;2022-08-02T00:26:58;19.20;1.00
1592;DHT22;789;51.612;7.510;2022-08-02T00:29:28;19.20;1.00
1592;DHT22;789;51.612;7.510;2022-08-02T00:31:55;19.10;1.00
1592;DHT22;789;51.612;7.510;2022-08-02T00:34:22;19.10;1.00
1592;DHT22;789;51.612;7.510;2022-08-02T00:36:48;19.10;1.00
1592;DHT22;789;51.612;7.510;2022-08-02T00:39:16;19.10;1.00
1592;DHT22;789;51.612;7.510;2022-08-02T00:41:51;19.00;1.00
1592;DHT22;789;51.612;7.510;2022-08-02T00:44:19;19.00;1.00
1592;DHT22;789;51.612;7.510;2022-08-02T00:46:47;18.90;1.00
1592;DHT22;789;51.612;7.510;2022-08-02T00:49:14;18.90;1.00
1592;DHT22;789;51.612;7.510;2022-08-02T00:51:41;18.90;1.00
1592;DHT22;789;51.612;7.510;2022-08-02T00:54:07;18.90;1.00
1592;DHT22;789;51.612;7.510;2022-08-02T00:56:35;18.90;1.00
1592;DHT22;789;51.612;7.510;2022-08-02T00:59:03;18.90;1.00
1592;DHT22;789;51.612;7.510;2022-08-02T01:01:30;18.90;1.00
1592;DHT22;789;51.612;7.510;2022-08-02T01:04:07;18.90;1.00
1592;DHT22;789;51.612;7.510;2022-08-02T01:06:35;18.80;1.00
1592;DHT22;789;51.612;7.510;2022-08-02T01:09:03;18.80;1.00
1592;DHT22;789;51.612;7.510;2022-08-02T01:11:31;18.80;1.00
1592;DHT22;789;51.612;7.510;2022-08-02T01:14:03;18.80;1.00
1592;DHT22;789;51.612;7.510;2022-08-02T01:16:36;18.80;1.00
1592;DHT22;789;51.612;7.510;2022-08-02T01:19:12;18.80;1.00
1592;DHT22;789;51.612;7.510;2022-08-02T01:21:53;18.70;1.00
1592;DHT22;789;51.612;7.510;2022-08-02T01:24:33;18.70;1.00
1592;DHT22;789;51.612;7.510;2022-08-02T01:27:16;18.60;1.00
1592;DHT22;789;51.612;7.510;2022-08-02T01:29:50;18.60;1.00
1592;DHT22;789;51.612;7.510;2022-08-02T01:32:24;18.60;1.00
1592;DHT22;789;51.612;7.510;2022-08-02T01:34:57;18.60;1.00
1592;DHT22;789;51.612;7.510;2022-08-02T01:37:27;18.50;1.00
1592;DHT22;789;51.612;7.510;2022-08-02T01:40:02;18.50;1.00
1592;DHT22;789;51.612;7.510;2022-08-02T01:42:30;18.50;1.00
1592;DHT22;789;51.612;7.510;2022-08-02T01:45:01;18.40;1.00
1592;DHT22;789;51.612;7.510;2022-08-02T01:47:32;18.40;1.00
1592;DHT22;789;51.612;7.510;2022-08-02T01:50:01;18.40;1.00
1592;DHT22;789;51.612;7.510;2022-08-02T01:52:31;18.40;1.00
1592;DHT22;789;51.612;7.510;2022-08-02T01:55:02;18.40;1.00
1592;DHT22;789;51.612;7.510;2022-08-02T01:57:33;18.40;1.00
1592;DHT22;789;51.612;7.510;2022-08-02T02:00:05;18.30;1.00
1592;DHT22;789;51.612;7.510;2022-08-02T02:02:33;18.30;1.00
1592;DHT22;789;51.612;7.510;2022-08-02T02:05:02;18.30;1.00
1592;DHT22;789;51.612;7.510;2022-08-02T02:07:29;18.30;1.00
1592;DHT22;789;51.612;7.510;2022-08-02T02:09:58;18.30;1.00
1592;DHT22;789;51.612;7.510;2022-08-02T02:12:26;18.30;1.00
1592;DHT22;789;51.612;7.510;2022-08-02T02:14:55;18.30;1.00
1592;DHT22;789;51.612;7.510;2022-08-02T02:17:24;18.30;1.00
1592;DHT22;789;51.612;7.510;2022-08-02T02:19:52;18.30;1.00
1592;DHT22;789;51.612;7.510;2022-08-02T02:22:22;18.30;1.00
1592;DHT22;789;51.612;7.510;2022-08-02T02:24:49;18.30;1.00
1592;DHT22;789;51.612;7.510;2022-08-02T02:27:18;18.30;1.00
1592;DHT22;789;51.612;7.510;2022-08-02T02:29:49;18.30;1.00
1592;DHT22;789;51.612;7.510;2022-08-02T02:32:17;18.30;1.00
1592;DHT22;789;51.612;7.510;2022-08-02T02:34:47;18.30;1.00
1592;DHT22;789;51.612;7.510;2022-08-02T02:37:22;18.30;1.00
1592;DHT22;789;51.612;7.510;2022-08-02T02:39:50;18.20;1.00
1592;DHT22;789;51.612;7.510;2022-08-02T02:42:22;18.20;1.00
1592;DHT22;789;51.612;7.510;2022-08-02T02:44:50;18.30;1.00
1592;DHT22;789;51.612;7.510;2022-08-02T02:47:18;18.10;1.00
1592;DHT22;789;51.612;7.510;2022-08-02T02:49:47;18.10;1.00
1592;DHT22;789;51.612;7.510;2022-08-02T02:52:16;18.10;1.00
1592;DHT22;789;51.612;7.510;2022-08-02T02:54:48;18.00;1.00
1592;DHT22;789;51.612;7.510;2022-08-02T02:57:15;18.00;1.00
1592;DHT22;789;51.612;7.510;2022-08-02T02:59:42;18.00;1.00
1592;DHT22;789;51.612;7.510;2022-08-02T03:02:10;18.00;1.00
1592;DHT22;789;51.612;7.510;2022-08-02T03:04:39;18.00;1.00
1592;DHT22;789;51.612;7.510;2022-08-02T03:07:08;17.90;1.00
1592;DHT22;789;51.612;7.510;2022-08-02T03:09:35;17.90;1.00
1592;DHT22;789;51.612;7.510;2022-08-02T03:12:04;17.90;1.00
1592;DHT22;789;51.612;7.510;2022-08-02T03:14:31;17.90;1.00
1592;DHT22;789;51.612;7.510;2022-08-02T03:16:59;17.90;1.00
1592;DHT22;789;51.612;7.510;2022-08-02T03:19:26;17.90;1.00
1592;DHT22;789;51.612;7.510;2022-08-02T03:21:52;17.90;1.00
1592;DHT22;789;51.612;7.510;2022-08-02T03:24:20;17.90;1.00
1592;DHT22;789;51.612;7.510;2022-08-02T03:26:47;17.90;1.00
1592;DHT22;789;51.612;7.510;2022-08-02T03:29:13;17.90;1.00
1592;DHT22;789;51.612;7.510;2022-08-02T03:31:43;17.90;1.00
1592;DHT22;789;51.612;7.510;2022-08-02T03:34:10;17.80;1.00
1592;DHT22;789;51.612;7.510;2022-08-02T03:36:38;17.80;1.00
1592;DHT22;789;51.612;7.510;2022-08-02T03:39:06;17.80;1.00
1592;DHT22;789;51.612;7.510;2022-08-02T03:41:35;17.80;1.00
1592;DHT22;789;51.612;7.510;2022-08-02T03:44:03;17.80;1.00
1592;DHT22;789;51.612;7.510;2022-08-02T03:46:31;17.80;1.00
1592;DHT22;789;51.612;7.510;2022-08-02T03:48:59;17.80;1.00
1592;DHT22;789;51.612;7.510;2022-08-02T03:51:26;17.70;1.00
1592;DHT22;789;51.612;7.510;2022-08-02T03:53:53;17.80;1.00
1592;DHT22;789;51.612;7.510;2022-08-02T03:56:20;17.70;1.00
1592;DHT22;789;51.612;7.510;2022-08-02T03:58:48;17.70;1.00
1592;DHT22;789;51.612;7.510;2022-08-02T04:01:16;17.70;1.00
1592;DHT22;789;51.612;7.510;2022-08-02T04:03:42;17.70;1.00
1592;DHT22;789;51.612;7.510;2022-08-02T04:06:09;17.70;1.00
1592;DHT22;789;51.612;7.510;2022-08-02T04:08:36;17.70;1.00
1592;DHT22;789;51.612;7.510;2022-08-02T04:11:03;17.70;1.00
1592;DHT22;789;51.612;7.510;2022-08-02T04:13:48;17.60;1.00
1592;DHT22;789;51.612;7.510;2022-08-02T04:16:20;17.70;1.00
1592;DHT22;789;51.612;7.510;2022-08-02T04:18:51;17.70;1.00
1592;DHT22;789;51.612;7.510;2022-08-02T04:21:21;17.70;1.00
1592;DHT22;789;51.612;7.510;2022-08-02T04:23:50;17.70;1.00
1592;DHT22;789;51.612;7.510;2022-08-02T04:26:19;17.70;1.00
1592;DHT22;789;51.612;7.510;2022-08-02T04:28:48;17.80;1.00
1592;DHT22;789;51.612;7.510;2022-08-02T04:31:16;17.80;1.00
1592;DHT22;789;51.612;7.510;2022-08-02T04:33:44;17.80;1.00
1592;DHT22;789;51.612;7.510;2022-08-02T04:36:11;17.90;1.00
1592;DHT22;789;51.612;7.510;2022-08-02T04:38:39;17.90;1.00
1592;DHT22;789;51.612;7.510;2022-08-02T04:41:07;17.90;1.00
1592;DHT22;789;51.612;7.510;2022-08-02T04:43:33;17.90;1.00
1592;DHT22;789;51.612;7.510;2022-08-02T04:46:02;17.90;1.00
1592;DHT22;789;51.612;7.510;2022-08-02T04:48:29;17.90;1.00
1592;DHT22;789;51.612;7.510;2022-08-02T04:50:56;18.00;1.00
1592;DHT22;789;51.612;7.510;2022-08-02T04:53:22;18.00;1.00
1592;DHT22;789;51.612;7.510;2022-08-02T04:55:49;18.10;1.00
1592;DHT22;789;51.612;7.510;2022-08-02T04:58:16;18.20;1.00
1592;DHT22;789;51.612;7.510;2022-08-02T05:00:43;18.30;1.00
1592;DHT22;789;51.612;7.510;2022-08-02T05:03:11;18.30;1.00
1592;DHT22;789;51.612;7.510;2022-08-02T05:05:39;18.30;1.00
1592;DHT22;789;51.612;7.510;2022-08-02T05:08:05;18.30;1.00
1592;DHT22;789;51.612;7.510;2022-08-02T05:10:32;18.40;1.00
1592;DHT22;789;51.612;7.510;2022-08-02T05:12:59;18.40;1.00
1592;DHT22;789;51.612;7.510;2022-08-02T05:15:25;18.50;1.00
1592;DHT22;789;51.612;7.510;2022-08-02T05:17:52;18.50;1.00
1592;DHT22;789;51.612;7.510;2022-08-02T05:20:20;18.60;1.00
1592;DHT22;789;51.612;7.510;2022-08-02T05:22:47;18.60;1.00
1592;DHT22;789;51.612;7.510;2022-08-02T05:25:14;18.70;1.00
1592;DHT22;789;51.612;7.510;2022-08-02T05:27:41;18.80;1.00
1592;DHT22;789;51.612;7.510;2022-08-02T05:30:08;18.90;1.00
1592;DHT22;789;51.612;7.510;2022-08-02T05:32:42;18.90;1.00
1592;DHT22;789;51.612;7.510;2022-08-02T05:35:09;19.00;1.00
1592;DHT22;789;51.612;7.510;2022-08-02T05:37:37;19.10;1.00
1592;DHT22;789;51.612;7.510;2022-08-02T05:40:05;19.10;1.00
1592;DHT22;789;51.612;7.510;2022-08-02T05:42:35;19.20;1.00
1592;DHT22;789;51.612;7.510;2022-08-02T05:45:02;19.30;1.00
1592;DHT22;789;51.612;7.510;2022-08-02T05:47:29;19.40;1.00
1592;DHT22;789;51.612;7.510;2022-08-02T05:49:56;19.50;1.00
1592;DHT22;789;51.612;7.510;2022-08-02T05:52:24;19.50;1.00
1592;DHT22;789;51.612;7.510;2022-08-02T05:55:05;19.50;1.00
1592;DHT22;789;51.612;7.510;2022-08-02T05:57:39;19.50;1.00
1592;DHT22;789;51.612;7.510;2022-08-02T06:00:08;19.60;1.00
1592;DHT22;789;51.612;7.510;2022-08-02T06:02:56;19.50;1.00
1592;DHT22;789;51.612;7.510;2022-08-02T06:05:26;19.60;1.00
1592;DHT22;789;51.612;7.510;2022-08-02T06:07:54;19.70;1.00
1592;DHT22;789;51.612;7.510;2022-08-02T06:10:27;19.70;1.00
1592;DHT22;789;51.612;7.510;2022-08-02T06:13:04;19.90;1.00
1592;DHT22;789;51.612;7.510;2022-08-02T06:15:33;20.10;1.00
1592;DHT22;789;51.612;7.510;2022-08-02T06:18:00;20.20;1.00
1592;DHT22;789;51.612;7.510;2022-08-02T06:20:28;20.20;1.00
1592;DHT22;789;51.612;7.510;2022-08-02T06:23:00;20.30;1.00
1592;DHT22;789;51.612;7.510;2022-08-02T06:25:28;20.50;1.00
1592;DHT22;789;51.612;7.510;2022-08-02T06:27:56;20.80;1.00
1592;DHT22;789;51.612;7.510;2022-08-02T06:30:23;21.10;1.00
1592;DHT22;789;51.612;7.510;2022-08-02T06:32:50;21.40;1.00
1592;DHT22;789;51.612;7.510;2022-08-02T06:35:17;21.70;1.00
1592;DHT22;789;51.612;7.510;2022-08-02T06:37:49;22.10;1.00
1592;DHT22;789;51.612;7.510;2022-08-02T06:40:23;22.40;1.00
1592;DHT22;789;51.612;7.510;2022-08-02T06:43:02;22.70;1.00
1592;DHT22;789;51.612;7.510;2022-08-02T06:45:31;22.80;1.00
1592;DHT22;789;51.612;7.510;2022-08-02T06:47:58;23.00;1.00
1592;DHT22;789;51.612;7.510;2022-08-02T06:50:25;23.20;1.00
1592;DHT22;789;51.612;7.510;2022-08-02T06:52:52;23.30;1.00
1592;DHT22;789;51.612;7.510;2022-08-02T06:55:19;23.30;1.00
1592;DHT22;789;51.612;7.510;2022-08-02T06:57:45;23.50;1.00
1592;DHT22;789;51.612;7.510;2022-08-02T07:00:15;23.80;1.00
1592;DHT22;789;51.612;7.510;2022-08-02T07:02:42;24.10;1.00
1592;DHT22;789;51.612;7.510;2022-08-02T07:05:08;24.40;1.00
1592;DHT22;789;51.612;7.510;2022-08-02T07:07:35;24.60;1.00
1592;DHT22;789;51.612;7.510;2022-08-02T07:10:03;24.70;1.00
1592;DHT22;789;51.612;7.510;2022-08-02T07:12:31;24.90;1.00
1592;DHT22;789;51.612;7.510;2022-08-02T07:14:58;25.10;1.00
1592;DHT22;789;51.612;7.510;2022-08-02T07:17:27;25.30;1.00
1592;DHT22;789;51.612;7.510;2022-08-02T07:19:53;25.50;1.00
1592;DHT22;789;51.612;7.510;2022-08-02T07:22:20;25.50;1.00
1592;DHT22;789;51.612;7.510;2022-08-02T07:24:47;25.70;1.00
1592;DHT22;789;51.612;7.510;2022-08-02T07:27:14;25.90;1.00
1592;DHT22;789;51.612;7.510;2022-08-02T07:29:41;25.90;1.00
1592;DHT22;789;51.612;7.510;2022-08-02T07:32:08;25.80;1.00
1592;DHT22;789;51.612;7.510;2022-08-02T07:34:36;26.00;1.00
1592;DHT22;789;51.612;7.510;2022-08-02T07:37:03;26.20;1.00
1592;DHT22;789;51.612;7.510;2022-08-02T07:39:29;26.50;1.00
1592;DHT22;789;51.612;7.510;2022-08-02T07:41:56;26.90;1.00
1592;DHT22;789;51.612;7.510;2022-08-02T07:44:23;27.30;1.00
1592;DHT22;789;51.612;7.510;2022-08-02T07:46:49;27.80;1.00
1592;DHT22;789;51.612;7.510;2022-08-02T07:49:16;28.30;1.00
1592;DHT22;789;51.612;7.510;2022-08-02T07:51:46;29.00;1.00
1592;DHT22;789;51.612;7.510;2022-08-02T07:54:13;29.60;1.00
1592;DHT22;789;51.612;7.510;2022-08-02T07:56:47;30.20;1.00
1592;DHT22;789;51.612;7.510;2022-08-02T07:59:14;30.80;1.00
1592;DHT22;789;51.612;7.510;2022-08-02T08:01:40;31.00;1.00
1592;DHT22;789;51.612;7.510;2022-08-02T08:04:07;30.80;1.00
1592;DHT22;789;51.612;7.510;2022-08-02T08:06:38;31.00;1.00
1592;DHT22;789;51.612;7.510;2022-08-02T08:09:07;31.60;1.00
1592;DHT22;789;51.612;7.510;2022-08-02T08:11:34;32.20;1.00
1592;DHT22;789;51.612;7.510;2022-08-02T08:14:01;33.00;1.00
1592;DHT22;789;51.612;7.510;2022-08-02T08:16:28;34.00;1.00
1592;DHT22;789;51.612;7.510;2022-08-02T08:18:55;34.40;1.00
1592;DHT22;789;51.612;7.510;2022-08-02T08:21:22;34.70;1.00
1592;DHT22;789;51.612;7.510;2022-08-02T08:23:48;34.80;1.00
1592;DHT22;789;51.612;7.510;2022-08-02T08:26:17;35.10;1.00
1592;DHT22;789;51.612;7.510;2022-08-02T08:28:43;35.60;1.00
1592;DHT22;789;51.612;7.510;2022-08-02T08:31:10;35.70;1.00
1592;DHT22;789;51.612;7.510;2022-08-02T08:33:37;35.90;1.00
1592;DHT22;789;51.612;7.510;2022-08-02T08:36:04;36.40;1.00
1592;DHT22;789;51.612;7.510;2022-08-02T08:38:30;36.50;1.00
1592;DHT22;789;51.612;7.510;2022-08-02T08:40:57;36.70;1.00
1592;DHT22;789;51.612;7.510;2022-08-02T08:43:25;37.20;1.00
1592;DHT22;789;51.612;7.510;2022-08-02T08:45:52;37.00;1.00
1592;DHT22;789;51.612;7.510;2022-08-02T08:48:21;36.30;1.00
1592;DHT22;789;51.612;7.510;2022-08-02T08:50:52;35.70;1.00
1592;DHT22;789;51.612;7.510;2022-08-02T08:53:20;35.60;1.00
1592;DHT22;789;51.612;7.510;2022-08-02T08:55:51;36.00;1.00
1592;DHT22;789;51.612;7.510;2022-08-02T08:58:18;36.60;1.00
1592;DHT22;789;51.612;7.510;2022-08-02T09:00:47;37.50;1.00
1592;DHT22;789;51.612;7.510;2022-08-02T09:03:14;38.30;1.00
1592;DHT22;789;51.612;7.510;2022-08-02T09:05:40;39.10;1.00
1592;DHT22;789;51.612;7.510;2022-08-02T09:08:08;40.00;1.00
1592;DHT22;789;51.612;7.510;2022-08-02T09:10:37;40.50;1.00
1592;DHT22;789;51.612;7.510;2022-08-02T09:13:09;41.00;1.00
1592;DHT22;789;51.612;7.510;2022-08-02T09:15:37;41.40;1.00
1592;DHT22;789;51.612;7.510;2022-08-02T09:18:06;41.80;1.00
1592;DHT22;789;51.612;7.510;2022-08-02T09:20:33;41.30;1.00
1592;DHT22;789;51.612;7.510;2022-08-02T09:23:07;41.00;1.00
1592;DHT22;789;51.612;7.510;2022-08-02T09:25:34;41.30;1.00
1592;DHT22;789;51.612;7.510;2022-08-02T09:28:02;41.80;1.00
1592;DHT22;789;51.612;7.510;2022-08-02T09:30:30;41.90;1.00
1592;DHT22;789;51.612;7.510;2022-08-02T09:32:57;42.10;1.00
1592;DHT22;789;51.612;7.510;2022-08-02T09:35:36;42.40;1.00
1592;DHT22;789;51.612;7.510;2022-08-02T09:38:08;41.90;1.00
1592;DHT22;789;51.612;7.510;2022-08-02T09:40:36;42.30;1.00
1592;DHT22;789;51.612;7.510;2022-08-02T09:43:04;42.30;1.00
1592;DHT22;789;51.612;7.510;2022-08-02T09:45:31;42.50;1.00
1592;DHT22;789;51.612;7.510;2022-08-02T09:47:59;43.00;1.00
1592;DHT22;789;51.612;7.510;2022-08-02T09:50:26;43.50;1.00
1592;DHT22;789;51.612;7.510;2022-08-02T09:52:55;43.30;1.00
1592;DHT22;789;51.612;7.510;2022-08-02T09:55:23;42.30;1.00
1592;DHT22;789;51.612;7.510;2022-08-02T09:57:50;41.50;1.00
1592;DHT22;789;51.612;7.510;2022-08-02T10:00:18;40.90;1.00
1592;DHT22;789;51.612;7.510;2022-08-02T10:03:04;40.90;1.00
1592;DHT22;789;51.612;7.510;2022-08-02T10:05:44;41.70;1.00
1592;DHT22;789;51.612;7.510;2022-08-02T10:08:13;41.80;1.00
1592;DHT22;789;51.612;7.510;2022-08-02T10:10:40;42.00;1.00
1592;DHT22;789;51.612;7.510;2022-08-02T10:13:07;42.10;1.00
1592;DHT22;789;51.612;7.510;2022-08-02T10:15:35;41.50;1.00
1592;DHT22;789;51.612;7.510;2022-08-02T10:18:02;41.20;1.00
1592;DHT22;789;51.612;7.510;2022-08-02T10:20:32;40.20;1.00
1592;DHT22;789;51.612;7.510;2022-08-02T10:23:02;39.50;1.00
1592;DHT22;789;51.612;7.510;2022-08-02T10:25:32;39.10;1.00
1592;DHT22;789;51.612;7.510;2022-08-02T10:28:01;39.20;1.00
1592;DHT22;789;51.612;7.510;2022-08-02T10:30:29;38.90;1.00
1592;DHT22;789;51.612;7.510;2022-08-02T10:32:57;38.70;1.00
1592;DHT22;789;51.612;7.510;2022-08-02T10:35:25;38.90;1.00
1592;DHT22;789;51.612;7.510;2022-08-02T10:37:55;38.60;1.00
1592;DHT22;789;51.612;7.510;2022-08-02T10:40:43;38.40;1.00
1592;DHT22;789;51.612;7.510;2022-08-02T10:43:10;37.80;1.00
1592;DHT22;789;51.612;7.510;2022-08-02T10:45:36;38.10;1.00
1592;DHT22;789;51.612;7.510;2022-08-02T10:48:07;38.20;1.00
1592;DHT22;789;51.612;7.510;2022-08-02T10:50:53;38.10;1.00
1592;DHT22;789;51.612;7.510;2022-08-02T10:53:22;38.60;1.00
1592;DHT22;789;51.612;7.510;2022-08-02T10:55:51;39.90;1.00
1592;DHT22;789;51.612;7.510;2022-08-02T10:58:19;40.90;1.00
1592;DHT22;789;51.612;7.510;2022-08-02T11:00:47;41.90;1.00
1592;DHT22;789;51.612;7.510;2022-08-02T11:03:36;41.80;1.00
1592;DHT22;789;51.612;7.510;2022-08-02T11:06:05;42.10;1.00
1592;DHT22;789;51.612;7.510;2022-08-02T11:08:33;42.30;1.00
1592;DHT22;789;51.612;7.510;2022-08-02T11:11:15;42.30;1.00
1592;DHT22;789;51.612;7.510;2022-08-02T11:14:02;41.80;1.00
1592;DHT22;789;51.612;7.510;2022-08-02T11:17:09;41.70;1.00
1592;DHT22;789;51.612;7.510;2022-08-02T11:22:38;40.90;1.00
1592;DHT22;789;51.612;7.510;2022-08-02T11:25:32;40.40;1.00
1592;DHT22;789;51.612;7.510;2022-08-02T11:28:16;40.20;1.00
1592;DHT22;789;51.612;7.510;2022-08-02T11:30:58;39.90;1.00
1592;DHT22;789;51.612;7.510;2022-08-02T11:33:30;40.30;1.00
1592;DHT22;789;51.612;7.510;2022-08-02T11:36:03;40.50;1.00
1592;DHT22;789;51.612;7.510;2022-08-02T11:38:33;40.10;1.00
1592;DHT22;789;51.612;7.510;2022-08-02T11:41:00;39.50;1.00
1592;DHT22;789;51.612;7.510;2022-08-02T11:43:29;39.20;1.00
1592;DHT22;789;51.612;7.510;2022-08-02T11:45:56;39.20;1.00
1592;DHT22;789;51.612;7.510;2022-08-02T11:48:30;39.30;1.00
1592;DHT22;789;51.612;7.510;2022-08-02T11:51:06;39.00;1.00
1592;DHT22;789;51.612;7.510;2022-08-02T11:53:43;38.60;1.00
1592;DHT22;789;51.612;7.510;2022-08-02T11:56:11;37.60;1.00
1592;DHT22;789;51.612;7.510;2022-08-02T11:58:39;36.90;1.00
1592;DHT22;789;51.612;7.510;2022-08-02T12:01:07;36.10;1.00
1592;DHT22;789;51.612;7.510;2022-08-02T12:03:35;35.50;1.00
1592;DHT22;789;51.612;7.510;2022-08-02T12:06:02;35.10;1.00
1592;DHT22;789;51.612;7.510;2022-08-02T12:08:30;34.70;1.00
1592;DHT22;789;51.612;7.510;2022-08-02T12:11:00;34.40;1.00
1592;DHT22;789;51.612;7.510;2022-08-02T12:13:27;34.10;1.00
1592;DHT22;789;51.612;7.510;2022-08-02T12:15:55;33.70;1.00
1592;DHT22;789;51.612;7.510;2022-08-02T12:18:47;33.50;1.00
1592;DHT22;789;51.612;7.510;2022-08-02T12:21:31;33.40;1.00
1592;DHT22;789;51.612;7.510;2022-08-02T12:23:58;33.20;1.00
1592;DHT22;789;51.612;7.510;2022-08-02T12:26:25;33.00;1.00
1592;DHT22;789;51.612;7.510;2022-08-02T12:28:54;32.40;1.00
1592;DHT22;789;51.612;7.510;2022-08-02T12:31:38;32.00;1.00
1592;DHT22;789;51.612;7.510;2022-08-02T12:34:11;31.70;1.00
1592;DHT22;789;51.612;7.510;2022-08-02T12:36:40;31.80;1.00
1592;DHT22;789;51.612;7.510;2022-08-02T12:39:11;31.80;1.00
1592;DHT22;789;51.612;7.510;2022-08-02T12:41:41;31.80;1.00
1592;DHT22;789;51.612;7.510;2022-08-02T12:44:16;31.80;1.00
1592;DHT22;789;51.612;7.510;2022-08-02T12:46:57;31.80;1.00
1592;DHT22;789;51.612;7.510;2022-08-02T12:49:24;31.60;1.00
1592;DHT22;789;51.612;7.510;2022-08-02T12:51:51;31.70;1.00
1592;DHT22;789;51.612;7.510;2022-08-02T12:54:19;31.70;1.00
1592;DHT22;789;51.612;7.510;2022-08-02T12:56:48;31.60;1.00
1592;DHT22;789;51.612;7.510;2022-08-02T12:59:15;31.40;1.00
1592;DHT22;789;51.612;7.510;2022-08-02T13:01:41;31.10;1.00
1592;DHT22;789;51.612;7.510;2022-08-02T13:04:11;30.70;1.00
1592;DHT22;789;51.612;7.510;2022-08-02T13:06:38;30.70;1.00
1592;DHT22;789;51.612;7.510;2022-08-02T13:09:12;30.60;1.00
1592;DHT22;789;51.612;7.510;2022-08-02T13:11:39;30.60;1.00
1592;DHT22;789;51.612;7.510;2022-08-02T13:14:06;30.80;1.00
1592;DHT22;789;51.612;7.510;2022-08-02T13:16:33;31.00;1.00
1592;DHT22;789;51.612;7.510;2022-08-02T13:19:00;31.30;1.00
1592;DHT22;789;51.612;7.510;2022-08-02T13:21:28;31.40;1.00
1592;DHT22;789;51.612;7.510;2022-08-02T13:23:54;31.50;1.00
1592;DHT22;789;51.612;7.510;2022-08-02T13:26:21;31.60;1.00
1592;DHT22;789;51.612;7.510;2022-08-02T13:28:48;31.70;1.00
1592;DHT22;789;51.612;7.510;2022-08-02T13:31:15;31.70;1.00
1592;DHT22;789;51.612;7.510;2022-08-02T13:33:41;31.70;1.00
1592;DHT22;789;51.612;7.510;2022-08-02T13:36:08;31.80;1.00
1592;DHT22;789;51.612;7.510;2022-08-02T13:38:36;31.90;1.00
1592;DHT22;789;51.612;7.510;2022-08-02T13:41:03;31.90;1.00
1592;DHT22;789;51.612;7.510;2022-08-02T13:43:37;31.80;1.00
1592;DHT22;789;51.612;7.510;2022-08-02T13:46:05;31.70;1.00
1592;DHT22;789;51.612;7.510;2022-08-02T13:48:32;31.70;1.00
1592;DHT22;789;51.612;7.510;2022-08-02T13:50:59;31.60;1.00
1592;DHT22;789;51.612;7.510;2022-08-02T13:53:26;31.50;1.00
1592;DHT22;789;51.612;7.510;2022-08-02T13:55:54;31.30;1.00
1592;DHT22;789;51.612;7.510;2022-08-02T13:58:22;31.30;1.00
1592;DHT22;789;51.612;7.510;2022-08-02T14:00:48;31.20;1.00
1592;DHT22;789;51.612;7.510;2022-08-02T14:03:15;31.10;1.00
1592;DHT22;789;51.612;7.510;2022-08-02T14:05:42;30.90;1.00
1592;DHT22;789;51.612;7.510;2022-08-02T14:08:09;30.70;1.00
1592;DHT22;789;51.612;7.510;2022-08-02T14:10:36;30.60;1.00
1592;DHT22;789;51.612;7.510;2022-08-02T14:13:04;30.40;1.00
1592;DHT22;789;51.612;7.510;2022-08-02T14:15:33;30.20;1.00
1592;DHT22;789;51.612;7.510;2022-08-02T14:18:00;30.10;1.00
1592;DHT22;789;51.612;7.510;2022-08-02T14:20:26;30.20;1.00
1592;DHT22;789;51.612;7.510;2022-08-02T14:22:53;30.30;1.00
1592;DHT22;789;51.612;7.510;2022-08-02T14:25:20;30.30;1.00
1592;DHT22;789;51.612;7.510;2022-08-02T14:27:47;30.40;1.00
1592;DHT22;789;51.612;7.510;2022-08-02T14:30:15;30.40;1.00
1592;DHT22;789;51.612;7.510;2022-08-02T14:32:42;30.40;1.00
1592;DHT22;789;51.612;7.510;2022-08-02T14:35:09;30.40;1.00
1592;DHT22;789;51.612;7.510;2022-08-02T14:37:35;30.50;1.00
1592;DHT22;789;51.612;7.510;2022-08-02T14:40:03;30.50;1.00
1592;DHT22;789;51.612;7.510;2022-08-02T14:42:30;30.50;1.00
1592;DHT22;789;51.612;7.510;2022-08-02T14:44:56;30.50;1.00
1592;DHT22;789;51.612;7.510;2022-08-02T14:47:27;30.40;1.00
1592;DHT22;789;51.612;7.510;2022-08-02T14:49:54;30.00;1.00
1592;DHT22;789;51.612;7.510;2022-08-02T14:52:21;30.40;1.00
1592;DHT22;789;51.612;7.510;2022-08-02T14:54:48;30.40;1.00
1592;DHT22;789;51.612;7.510;2022-08-02T14:57:15;30.50;1.00
1592;DHT22;789;51.612;7.510;2022-08-02T14:59:41;30.50;1.00
1592;DHT22;789;51.612;7.510;2022-08-02T15:02:08;30.50;1.00
1592;DHT22;789;51.612;7.510;2022-08-02T15:04:37;30.50;1.00
1592;DHT22;789;51.612;7.510;2022-08-02T15:07:04;30.50;1.00
1592;DHT22;789;51.612;7.510;2022-08-02T15:09:32;30.60;1.00
1592;DHT22;789;51.612;7.510;2022-08-02T15:11:59;30.60;1.00
1592;DHT22;789;51.612;7.510;2022-08-02T15:14:25;30.60;1.00
1592;DHT22;789;51.612;7.510;2022-08-02T15:16:52;30.60;1.00
1592;DHT22;789;51.612;7.510;2022-08-02T15:19:19;30.40;1.00
1592;DHT22;789;51.612;7.510;2022-08-02T15:21:47;30.50;1.00
1592;DHT22;789;51.612;7.510;2022-08-02T15:24:14;30.40;1.00
1592;DHT22;789;51.612;7.510;2022-08-02T15:26:40;30.40;1.00
1592;DHT22;789;51.612;7.510;2022-08-02T15:29:07;30.40;1.00
1592;DHT22;789;51.612;7.510;2022-08-02T15:31:34;30.40;1.00
1592;DHT22;789;51.612;7.510;2022-08-02T15:34:01;30.50;1.00
1592;DHT22;789;51.612;7.510;2022-08-02T15:36:27;30.50;1.00
1592;DHT22;789;51.612;7.510;2022-08-02T15:39:05;30.40;1.00
1592;DHT22;789;51.612;7.510;2022-08-02T15:41:34;30.40;1.00
1592;DHT22;789;51.612;7.510;2022-08-02T15:44:00;30.30;1.00
1592;DHT22;789;51.612;7.510;2022-08-02T15:46:35;30.30;1.00
1592;DHT22;789;51.612;7.510;2022-08-02T15:49:02;30.30;1.00
1592;DHT22;789;51.612;7.510;2022-08-02T15:51:29;30.30;1.00
1592;DHT22;789;51.612;7.510;2022-08-02T15:53:57;30.30;1.00
1592;DHT22;789;51.612;7.510;2022-08-02T15:56:24;30.30;1.00
1592;DHT22;789;51.612;7.510;2022-08-02T15:58:51;30.30;1.00
1592;DHT22;789;51.612;7.510;2022-08-02T16:01:18;30.20;1.00
1592;DHT22;789;51.612;7.510;2022-08-02T16:03:45;30.30;1.00
1592;DHT22;789;51.612;7.510;2022-08-02T16:06:12;30.20;1.00
1592;DHT22;789;51.612;7.510;2022-08-02T16:08:40;30.20;1.00
1592;DHT22;789;51.612;7.510;2022-08-02T16:11:08;30.30;1.00
1592;DHT22;789;51.612;7.510;2022-08-02T16:13:34;30.20;1.00
1592;DHT22;789;51.612;7.510;2022-08-02T16:16:18;30.00;1.00
1592;DHT22;789;51.612;7.510;2022-08-02T16:18:46;30.00;1.00
1592;DHT22;789;51.612;7.510;2022-08-02T16:21:13;29.80;1.00
1592;DHT22;789;51.612;7.510;2022-08-02T16:23:39;29.80;1.00
1592;DHT22;789;51.612;7.510;2022-08-02T16:26:08;29.80;1.00
1592;DHT22;789;51.612;7.510;2022-08-02T16:28:34;29.80;1.00
1592;DHT22;789;51.612;7.510;2022-08-02T16:31:01;29.80;1.00
1592;DHT22;789;51.612;7.510;2022-08-02T16:33:28;29.80;1.00
1592;DHT22;789;51.612;7.510;2022-08-02T16:36:00;29.80;1.00
1592;DHT22;789;51.612;7.510;2022-08-02T16:38:27;29.80;1.00
1592;DHT22;789;51.612;7.510;2022-08-02T16:40:54;29.90;1.00
1592;DHT22;789;51.612;7.510;2022-08-02T16:43:22;30.00;1.00
1592;DHT22;789;51.612;7.510;2022-08-02T16:45:51;30.00;1.00
1592;DHT22;789;51.612;7.510;2022-08-02T16:48:18;29.90;1.00
1592;DHT22;789;51.612;7.510;2022-08-02T16:50:45;29.90;1.00